Cambridge, Canada
Current Conditions -  °F | °C
As of 7:21 AM on Friday 24 Oct 2014 (Local Time) from CYKF Reporting Station
Haze Haze  
Wind Chill: -3°   Ceiling: 400
Heat Index:   Visibility: 3mi
Dew Point:   Wind: 6mph
Humidity: 100%   Direction: 320°NW
Pressure: 30.05"   Gusts: NA
Location:  43.38°N, 80.32°W
Report Text: CYKF 241121Z AUTO 32005KT 3SM BR BKN004 M00/M00 A3005 RMK SLP186
Loading
Personal Weather Stations






























Interactive Weather Map
Tropical Storm Tracking
New forecast layout! Learn more

10-Day Weather Forecast

Advertisements
Track Severe Weather on mobile